Time;durP1;ratioP1;P1;durP2;ratioP2;P2;SDS_P1;SDS_P2;PMS_P1;PMS_P2;Temp;Humidity;BMP_temperature;BMP_pressure;BME280_temperature;BME280_humidity;BME280_pressure;Samples;Min_cycle;Max_cycle;Signal;HPM_P1;HPM_P2
2022/11/27 00:00:52;;;;;;;16.80;5.85;;;7.30;99.90;;;;;;5066912;28;20104;-73
2022/11/27 00:03:18;;;;;;;21.02;6.63;;;7.30;99.90;;;;;;5051018;28;20047;-73
2022/11/27 00:05:55;;;;;;;16.90;6.47;;;7.30;99.90;;;;;;5025049;28;20068;-73
2022/11/27 00:08:22;;;;;;;18.33;6.20;;;7.40;99.90;;;;;;5085170;28;20036;-73
2022/11/27 00:10:48;;;;;;;18.13;7.30;;;7.40;99.90;;;;;;5035269;28;20053;-73
2022/11/27 00:13:14;;;;;;;15.77;6.13;;;7.40;99.90;;;;;;5028408;28;20049;-73
2022/11/27 00:15:39;;;;;;;18.17;6.13;;;7.30;99.90;;;;;;5048360;28;20104;-73
2022/11/27 00:18:05;;;;;;;17.83;6.30;;;7.30;99.90;;;;;;5056199;28;20041;-73
2022/11/27 00:20:31;;;;;;;19.35;5.88;;;7.30;99.90;;;;;;5038163;28;20072;-73
2022/11/27 00:22:56;;;;;;;18.40;7.60;;;7.30;99.90;;;;;;5046953;28;20067;-73
2022/11/27 00:25:22;;;;;;;14.75;6.30;;;7.30;99.90;;;;;;5079754;28;20045;-73
2022/11/27 00:27:48;;;;;;;18.63;6.93;;;7.40;99.90;;;;;;5050782;28;20041;-73
2022/11/27 00:30:14;;;;;;;18.30;6.45;;;7.30;99.90;;;;;;5054735;28;20056;-73
2022/11/27 00:32:40;;;;;;;22.70;6.70;;;7.20;99.90;;;;;;5061531;28;20056;-73
2022/11/27 00:35:06;;;;;;;14.35;5.85;;;7.20;99.90;;;;;;5038019;28;20049;-73
2022/11/27 00:37:32;;;;;;;15.40;6.38;;;7.30;99.90;;;;;;5061862;28;20092;-73
2022/11/27 00:39:58;;;;;;;19.58;6.47;;;7.20;99.90;;;;;;5087030;28;20100;-73
2022/11/27 00:42:23;;;;;;;19.13;6.70;;;7.10;99.90;;;;;;5076591;28;20099;-73
2022/11/27 00:44:49;;;;;;;23.27;7.43;;;7.00;99.90;;;;;;5044806;28;20076;-73
2022/11/27 00:47:15;;;;;;;17.65;7.47;;;7.00;99.90;;;;;;5038941;28;20502;-73
2022/11/27 00:49:40;;;;;;;13.13;6.15;;;7.00;99.90;;;;;;5046451;28;20110;-73
2022/11/27 00:52:06;;;;;;;17.08;7.00;;;7.00;99.90;;;;;;5010785;28;20417;-72
2022/11/27 00:54:32;;;;;;;21.35;8.80;;;7.10;99.90;;;;;;5045255;28;20115;-73
2022/11/27 00:56:58;;;;;;;22.50;9.27;;;7.20;99.90;;;;;;5065682;28;20041;-73
2022/11/27 00:59:24;;;;;;;15.68;8.23;;;7.10;99.90;;;;;;5041954;28;20116;-73
2022/11/27 01:01:50;;;;;;;20.00;8.50;;;7.20;99.90;;;;;;5082190;28;20108;-73
2022/11/27 01:04:16;;;;;;;17.13;7.47;;;7.10;99.90;;;;;;5042917;28;20061;-73
2022/11/27 01:06:42;;;;;;;18.73;7.25;;;7.00;99.90;;;;;;5059599;28;20136;-73
2022/11/27 01:09:10;;;;;;;17.88;7.38;;;6.90;99.90;;;;;;5081311;28;20048;-72
2022/11/27 01:11:36;;;;;;;16.10;7.32;;;7.00;99.90;;;;;;5081359;28;20057;-73
2022/11/27 01:14:05;;;;;;;15.48;7.00;;;6.90;99.90;;;;;;5064693;28;20055;-73
2022/11/27 01:16:32;;;;;;;18.10;7.72;;;7.00;99.90;;;;;;5046465;28;20049;-73
2022/11/27 01:19:00;;;;;;;19.45;8.75;;;6.90;99.90;;;;;;5047132;28;20041;-73
2022/11/27 01:21:28;;;;;;;20.63;7.78;;;6.90;99.90;;;;;;5044882;28;20052;-73
2022/11/27 01:23:54;;;;;;;15.52;7.15;;;7.00;99.90;;;;;;5067921;28;20065;-73
2022/11/27 01:26:20;;;;;;;20.45;7.50;;;7.00;99.90;;;;;;5045808;28;20079;-73
2022/11/27 01:28:46;;;;;;;15.40;7.22;;;6.90;99.90;;;;;;5049530;28;20041;-73
2022/11/27 01:31:15;;;;;;;14.82;6.85;;;7.00;99.90;;;;;;5047831;28;20087;-73
2022/11/27 01:33:42;;;;;;;17.10;6.78;;;6.90;99.90;;;;;;5094858;28;20437;-73
2022/11/27 01:36:10;;;;;;;19.02;7.30;;;7.00;99.90;;;;;;5056704;28;20064;-72
2022/11/27 01:38:35;;;;;;;14.70;6.53;;;6.90;99.90;;;;;;5050060;28;20037;-73
2022/11/27 01:41:08;;;;;;;23.92;8.25;;;7.00;99.90;;;;;;5044269;28;20073;-73
2022/11/27 01:43:41;;;;;;;13.95;6.60;;;7.00;99.90;;;;;;5063301;28;20055;-73
2022/11/27 01:46:32;;;;;;;13.73;6.82;;;6.90;99.90;;;;;;5047510;28;20489;-73
2022/11/27 01:49:09;;;;;;;19.25;6.97;;;6.80;99.90;;;;;;5048305;28;20068;-73
2022/11/27 01:51:48;;;;;;;16.33;6.57;;;7.00;99.90;;;;;;5044002;28;20109;-73
2022/11/27 01:54:15;;;;;;;17.10;6.85;;;6.90;99.90;;;;;;5046782;28;20045;-73
2022/11/27 01:56:46;;;;;;;12.88;6.80;;;6.80;99.90;;;;;;5079641;28;20076;-73
2022/11/27 01:59:12;;;;;;;20.00;7.80;;;6.90;99.90;;;;;;5041516;28;21239;-73
2022/11/27 02:01:38;;;;;;;18.90;7.97;;;6.90;99.90;;;;;;5079155;28;20079;-73
2022/11/27 02:04:04;;;;;;;18.55;7.38;;;6.90;99.90;;;;;;5047795;28;20063;-73
2022/11/27 02:06:30;;;;;;;19.00;8.40;;;6.90;99.90;;;;;;5042687;28;20076;-73
2022/11/27 02:08:56;;;;;;;13.80;6.95;;;6.80;99.90;;;;;;5047728;28;20045;-73
2022/11/27 02:11:44;;;;;;;20.95;8.13;;;6.80;99.90;;;;;;5074852;28;20597;-73
2022/11/27 02:14:10;;;;;;;17.33;7.25;;;6.70;99.90;;;;;;5036661;28;20071;-73
2022/11/27 02:16:49;;;;;;;18.30;8.38;;;6.70;99.90;;;;;;5046620;28;20045;-73
2022/11/27 02:19:28;;;;;;;15.32;7.50;;;6.80;99.90;;;;;;5048690;28;20047;-73
2022/11/27 02:22:33;;;;;;;14.70;7.13;;;6.80;99.90;;;;;;5047290;28;20056;-73
2022/11/27 02:25:32;;;;;;;16.85;7.18;;;6.70;99.90;;;;;;5048219;28;20151;-73
2022/11/27 02:28:16;;;;;;;22.60;8.05;;;6.80;99.90;;;;;;5064453;28;20100;-73
2022/11/27 02:30:48;;;;;;;23.08;8.07;;;6.70;99.90;;;;;;5065464;28;20132;-72
2022/11/27 02:33:19;;;;;;;17.42;8.38;;;6.70;99.90;;;;;;5066644;28;20052;-73
2022/11/27 02:35:57;;;;;;;14.30;7.75;;;6.70;99.90;;;;;;5047966;28;20501;-73
2022/11/27 02:38:52;;;;;;;15.85;8.60;;;6.80;99.90;;;;;;5032816;28;20113;-73
2022/11/27 02:41:29;;;;;;;17.67;7.28;;;6.70;99.90;;;;;;5050602;28;20049;-73
2022/11/27 02:43:57;;;;;;;12.13;6.43;;;6.80;99.90;;;;;;5052445;28;20037;-73
2022/11/27 02:46:24;;;;;;;17.02;7.45;;;6.80;99.90;;;;;;5058377;28;20050;-73
2022/11/27 02:48:57;;;;;;;21.27;7.50;;;6.70;99.90;;;;;;5055330;28;20070;-73
2022/11/27 02:51:36;;;;;;;17.10;7.57;;;6.70;99.90;;;;;;5092414;28;20044;-73
2022/11/27 02:54:05;;;;;;;17.02;7.53;;;6.70;99.90;;;;;;5056134;28;20045;-73
2022/11/27 02:56:32;;;;;;;11.10;6.30;;;6.70;99.90;;;;;;5067279;28;20046;-73
2022/11/27 02:59:05;;;;;;;19.58;6.90;;;6.60;99.90;;;;;;5053084;28;20049;-73
2022/11/27 03:01:35;;;;;;;14.77;7.80;;;6.70;99.90;;;;;;5054356;28;20041;-73
2022/11/27 03:04:03;;;;;;;16.80;7.47;;;6.70;99.90;;;;;;5051453;28;20102;-73
2022/11/27 03:06:49;;;;;;;12.30;6.30;;;6.70;99.90;;;;;;5061231;28;20055;-73
2022/11/27 03:09:25;;;;;;;12.35;6.68;;;6.70;99.90;;;;;;5038632;28;20103;-73
2022/11/27 03:11:53;;;;;;;16.92;7.13;;;6.80;99.90;;;;;;5059076;28;20052;-73
2022/11/27 03:14:23;;;;;;;14.45;6.70;;;6.70;99.90;;;;;;5043826;28;20053;-73
2022/11/27 03:17:02;;;;;;;16.67;7.18;;;6.60;99.90;;;;;;5051629;28;20049;-73
2022/11/27 03:19:53;;;;;;;14.32;6.72;;;6.60;99.90;;;;;;5089034;28;20405;-73
2022/11/27 03:22:19;;;;;;;18.45;6.95;;;6.60;99.90;;;;;;5062262;28;20045;-73
2022/11/27 03:24:45;;;;;;;17.85;6.47;;;6.80;99.90;;;;;;5054908;28;20041;-73
2022/11/27 03:27:18;;;;;;;14.15;5.82;;;6.60;99.90;;;;;;5051012;28;20114;-73
2022/11/27 03:29:50;;;;;;;13.68;6.45;;;6.70;99.90;;;;;;5086458;28;20097;-73
2022/11/27 03:32:17;;;;;;;16.30;6.32;;;6.70;99.90;;;;;;5061883;28;20083;-73
2022/11/27 03:34:43;;;;;;;12.45;6.60;;;6.70;99.90;;;;;;5043052;28;20042;-73
2022/11/27 03:37:09;;;;;;;16.30;6.63;;;6.60;99.90;;;;;;5070985;28;20056;-73
2022/11/27 03:39:35;;;;;;;17.13;7.18;;;6.70;99.90;;;;;;5074982;28;20051;-73
2022/11/27 03:42:04;;;;;;;15.38;6.85;;;6.70;99.90;;;;;;5054163;28;20063;-73
2022/11/27 03:45:06;;;;;;;15.80;7.13;;;6.80;99.90;;;;;;5061352;28;20044;-72
2022/11/27 03:47:54;;;;;;;14.73;6.95;;;6.60;99.90;;;;;;5043412;28;20575;-73
2022/11/27 03:50:41;;;;;;;18.02;7.07;;;6.60;99.90;;;;;;5059124;28;20045;-73
2022/11/27 03:53:30;;;;;;;16.98;6.50;;;6.50;99.90;;;;;;5055712;28;20045;-73
2022/11/27 03:56:07;;;;;;;18.90;6.53;;;6.50;99.90;;;;;;5070742;28;20114;-73
2022/11/27 03:58:45;;;;;;;13.88;6.38;;;6.60;99.90;;;;;;5030379;28;20115;-73
2022/11/27 04:01:15;;;;;;;15.35;5.90;;;6.50;99.90;;;;;;5021498;28;20045;-73
2022/11/27 04:03:41;;;;;;;14.43;6.03;;;6.50;99.90;;;;;;5077694;28;20078;-73
2022/11/27 04:06:07;;;;;;;17.50;6.70;;;6.50;99.90;;;;;;5057728;28;20127;-73
2022/11/27 04:08:33;;;;;;;12.63;5.80;;;6.60;99.90;;;;;;5037336;28;20041;-73
2022/11/27 04:10:58;;;;;;;17.23;5.65;;;6.60;99.90;;;;;;5036936;28;20052;-73
2022/11/27 04:13:24;;;;;;;14.32;5.65;;;6.60;99.90;;;;;;5045329;28;20080;-73
2022/11/27 04:15:50;;;;;;;16.77;5.93;;;6.50;99.90;;;;;;5048170;28;20056;-73
2022/11/27 04:18:16;;;;;;;15.02;6.45;;;6.40;99.90;;;;;;5060323;28;20052;-72
2022/11/27 04:20:42;;;;;;;12.40;5.60;;;6.40;99.90;;;;;;5038966;28;20375;-73
2022/11/27 04:23:08;;;;;;;14.73;6.15;;;6.50;99.90;;;;;;5079623;28;20056;-73
2022/11/27 04:25:34;;;;;;;16.02;6.15;;;6.40;99.90;;;;;;5080742;28;20045;-73
2022/11/27 04:28:00;;;;;;;15.07;5.53;;;6.40;99.90;;;;;;5064853;28;20084;-73
2022/11/27 04:30:25;;;;;;;15.93;5.90;;;6.50;99.90;;;;;;5081275;28;20045;-73
2022/11/27 04:32:51;;;;;;;14.70;5.40;;;6.40;99.90;;;;;;5058326;28;20063;-73
2022/11/27 04:35:17;;;;;;;12.30;6.03;;;6.40;99.90;;;;;;5047159;28;20134;-73
2022/11/27 04:37:43;;;;;;;13.07;5.18;;;6.40;99.90;;;;;;5046473;28;20053;-73
2022/11/27 04:40:09;;;;;;;17.15;6.32;;;6.60;99.90;;;;;;5053603;28;20075;-73
2022/11/27 04:42:34;;;;;;;15.23;6.45;;;6.50;99.90;;;;;;5060220;28;20057;-73
2022/11/27 04:45:00;;;;;;;13.07;5.72;;;6.60;99.90;;;;;;5086006;28;20049;-73
2022/11/27 04:47:26;;;;;;;13.05;5.15;;;6.40;99.90;;;;;;5052068;28;20104;-73
2022/11/27 04:49:51;;;;;;;14.70;5.35;;;6.50;99.90;;;;;;5038172;28;20076;-73
2022/11/27 04:52:17;;;;;;;11.32;4.93;;;6.40;99.90;;;;;;5066839;28;20098;-73
2022/11/27 04:54:43;;;;;;;12.52;5.20;;;6.50;99.90;;;;;;5029365;28;20046;-73
2022/11/27 04:57:08;;;;;;;10.68;4.35;;;6.50;99.90;;;;;;5026943;28;20085;-73
2022/11/27 04:59:34;;;;;;;11.73;6.13;;;6.40;99.90;;;;;;5049160;28;20048;-73
2022/11/27 05:02:00;;;;;;;13.20;5.78;;;6.50;99.90;;;;;;5063175;28;20049;-73
2022/11/27 05:04:25;;;;;;;13.90;4.97;;;6.30;99.90;;;;;;5058073;28;20037;-73
2022/11/27 05:06:51;;;;;;;14.35;5.78;;;6.40;99.90;;;;;;5026702;28;20061;-73
2022/11/27 05:09:17;;;;;;;13.88;5.15;;;6.30;99.90;;;;;;5057314;28;20040;-73
2022/11/27 05:11:43;;;;;;;14.07;5.75;;;6.30;99.90;;;;;;5050692;28;20082;-73
2022/11/27 05:14:19;;;;;;;15.07;5.88;;;6.30;99.90;;;;;;5064372;28;20046;-73
2022/11/27 05:16:50;;;;;;;15.30;5.43;;;6.50;99.90;;;;;;5032393;28;20154;-73
2022/11/27 05:19:17;;;;;;;10.77;5.78;;;6.30;99.90;;;;;;5048922;28;20048;-73
2022/11/27 05:21:45;;;;;;;14.65;5.95;;;6.30;99.90;;;;;;5055243;28;20037;-73
2022/11/27 05:24:11;;;;;;;12.60;5.03;;;6.30;99.90;;;;;;5069607;28;20108;-73
2022/11/27 05:26:38;;;;;;;10.60;4.45;;;6.30;99.90;;;;;;5070751;28;20055;-73
2022/11/27 05:29:05;;;;;;;14.65;5.43;;;6.30;99.90;;;;;;5055853;28;20052;-73
2022/11/27 05:31:30;;;;;;;14.05;4.25;;;6.30;99.90;;;;;;5067187;28;20567;-73
2022/11/27 05:33:56;;;;;;;13.75;5.18;;;6.30;99.90;;;;;;5069303;28;20033;-73
2022/11/27 05:36:23;;;;;;;12.68;5.80;;;6.20;99.90;;;;;;5051436;28;20049;-73
2022/11/27 05:38:48;;;;;;;13.88;4.95;;;6.20;99.90;;;;;;5050677;28;20049;-73
2022/11/27 05:41:14;;;;;;;14.73;4.63;;;6.30;99.90;;;;;;5068560;28;20041;-73
2022/11/27 05:43:40;;;;;;;15.45;5.82;;;6.30;99.90;;;;;;5053372;28;20125;-73
2022/11/27 05:46:08;;;;;;;14.27;5.80;;;6.20;99.90;;;;;;5051053;28;20104;-72
2022/11/27 05:48:35;;;;;;;10.25;4.95;;;6.30;99.90;;;;;;5030644;28;20041;-73
2022/11/27 05:51:01;;;;;;;13.65;4.80;;;6.30;99.90;;;;;;5055122;28;20048;-73
2022/11/27 05:53:28;;;;;;;12.52;5.57;;;6.40;99.90;;;;;;5056136;28;20041;-73
2022/11/27 05:55:53;;;;;;;11.77;4.63;;;6.40;99.90;;;;;;5038805;28;20049;-73
2022/11/27 05:58:19;;;;;;;12.43;5.03;;;6.30;99.90;;;;;;5056019;28;20048;-73
2022/11/27 06:00:45;;;;;;;16.33;5.05;;;6.30;99.90;;;;;;5055424;28;20098;-73
2022/11/27 06:03:11;;;;;;;13.10;5.07;;;6.30;99.90;;;;;;5054447;28;20056;-73
2022/11/27 06:05:40;;;;;;;8.30;4.40;;;6.40;99.90;;;;;;5073610;28;20049;-73
2022/11/27 06:08:06;;;;;;;13.55;5.20;;;6.30;99.90;;;;;;5054990;28;20041;-73
2022/11/27 06:10:31;;;;;;;13.13;4.80;;;6.30;99.90;;;;;;5054391;28;20059;-72
2022/11/27 06:12:57;;;;;;;9.88;5.38;;;6.40;99.90;;;;;;5053214;28;20063;-73
2022/11/27 06:15:23;;;;;;;11.48;4.70;;;6.30;99.90;;;;;;5055547;28;20037;-73
2022/11/27 06:17:49;;;;;;;12.50;5.00;;;6.30;99.90;;;;;;5052151;28;20088;-73
2022/11/27 06:20:16;;;;;;;10.70;4.95;;;6.20;99.90;;;;;;5057396;28;20043;-73
2022/11/27 06:22:42;;;;;;;11.70;5.00;;;6.20;99.90;;;;;;5064413;28;20045;-73
2022/11/27 06:25:08;;;;;;;11.18;4.57;;;6.20;99.90;;;;;;5027831;28;20056;-73
2022/11/27 06:27:35;;;;;;;11.68;5.13;;;6.30;99.90;;;;;;5049491;28;20088;-73
2022/11/27 06:30:02;;;;;;;11.18;5.07;;;6.20;99.90;;;;;;5036245;28;20041;-73
2022/11/27 06:32:28;;;;;;;11.20;5.10;;;6.20;99.90;;;;;;5028472;28;20401;-73
2022/11/27 06:34:54;;;;;;;11.40;4.78;;;6.20;99.90;;;;;;5049992;28;20041;-73
2022/11/27 06:37:19;;;;;;;8.18;4.53;;;6.10;99.90;;;;;;5083473;28;20143;-73
2022/11/27 06:39:47;;;;;;;11.32;5.07;;;6.20;99.90;;;;;;5057379;28;20040;-72
2022/11/27 06:42:13;;;;;;;11.85;5.38;;;6.30;99.90;;;;;;5053693;28;20036;-72
2022/11/27 06:44:39;;;;;;;13.95;6.68;;;6.10;99.90;;;;;;5053093;28;20068;-72
2022/11/27 06:47:04;;;;;;;9.02;4.95;;;6.20;99.90;;;;;;5052542;28;20075;-73
2022/11/27 06:49:30;;;;;;;12.57;5.30;;;6.20;99.90;;;;;;5072432;28;20053;-73
2022/11/27 06:51:56;;;;;;;8.70;4.90;;;6.20;99.90;;;;;;5048950;28;20052;-73
2022/11/27 06:54:21;;;;;;;12.43;5.22;;;6.20;99.90;;;;;;5056375;28;20100;-73
2022/11/27 06:56:49;;;;;;;13.88;5.35;;;6.10;99.90;;;;;;5087795;28;20512;-73
2022/11/27 06:59:15;;;;;;;9.77;4.90;;;6.20;99.90;;;;;;5091373;28;20067;-73
2022/11/27 07:01:41;;;;;;;12.02;5.40;;;6.20;99.90;;;;;;5039813;28;20053;-73
2022/11/27 07:04:12;;;;;;;12.45;5.05;;;6.20;99.90;;;;;;5043911;28;20049;-73
2022/11/27 07:06:38;;;;;;;14.20;5.53;;;6.20;99.90;;;;;;5078780;28;20417;-73
2022/11/27 07:09:04;;;;;;;15.35;5.22;;;6.20;99.90;;;;;;5072447;28;20075;-73
2022/11/27 07:11:31;;;;;;;12.55;5.18;;;6.10;99.90;;;;;;5038518;28;20072;-73
2022/11/27 07:14:00;;;;;;;12.60;5.45;;;6.10;99.90;;;;;;5032880;28;20049;-73
2022/11/27 07:16:27;;;;;;;14.18;5.93;;;6.10;99.90;;;;;;5054434;28;20072;-72
2022/11/27 07:18:56;;;;;;;8.93;4.63;;;6.10;99.90;;;;;;5075519;28;20537;-72
2022/11/27 07:21:22;;;;;;;11.98;5.47;;;6.10;99.90;;;;;;5072288;28;20497;-72
2022/11/27 07:23:48;;;;;;;14.15;6.22;;;6.20;99.90;;;;;;5075676;28;20049;-72
2022/11/27 07:26:20;;;;;;;12.52;5.20;;;6.20;99.90;;;;;;5055177;28;20062;-72
2022/11/27 07:28:46;;;;;;;11.43;5.30;;;6.20;99.90;;;;;;5046627;28;20132;-72
2022/11/27 07:31:15;;;;;;;12.98;5.60;;;6.20;99.90;;;;;;5059990;28;20044;-72
2022/11/27 07:33:40;;;;;;;13.55;6.07;;;6.20;99.90;;;;;;5053453;28;20072;-72
2022/11/27 07:36:28;;;;;;;10.77;5.35;;;6.20;99.90;;;;;;5051115;28;20080;-72
2022/11/27 07:38:54;;;;;;;12.13;6.05;;;6.10;99.90;;;;;;5040461;28;20053;-72
2022/11/27 07:41:20;;;;;;;13.20;6.03;;;6.20;99.90;;;;;;5054313;28;20075;-72
2022/11/27 07:43:45;;;;;;;10.52;4.90;;;6.20;99.90;;;;;;5038387;28;20053;-72
2022/11/27 07:46:15;;;;;;;11.75;6.25;;;6.20;99.90;;;;;;5067913;28;20051;-73
2022/11/27 07:48:41;;;;;;;9.90;5.20;;;6.20;99.90;;;;;;5077293;28;20051;-72
2022/11/27 07:51:09;;;;;;;12.57;6.05;;;6.20;99.90;;;;;;5051337;28;20048;-72
2022/11/27 07:53:39;;;;;;;11.05;5.95;;;6.10;99.90;;;;;;5088975;28;20127;-72
2022/11/27 07:56:06;;;;;;;;;;;6.10;99.90;;;;;;5081122;28;20045;-72
2022/11/27 07:58:32;;;;;;;10.57;5.75;;;6.10;99.90;;;;;;5036216;28;19971;-72
2022/11/27 08:00:58;;;;;;;15.05;6.43;;;6.10;99.90;;;;;;5021793;28;20126;-72
2022/11/27 08:03:24;;;;;;;14.10;5.90;;;6.20;99.90;;;;;;5036451;28;20049;-72
2022/11/27 08:05:50;;;;;;;17.90;6.47;;;6.30;99.90;;;;;;4996763;28;20063;-64
2022/11/27 08:08:16;;;;;;;12.18;5.95;;;6.20;99.90;;;;;;5051991;28;20124;-65
2022/11/27 08:10:41;;;;;;;10.25;5.80;;;6.20;99.90;;;;;;5064547;28;20049;-65
2022/11/27 08:13:07;;;;;;;15.73;6.10;;;6.20;99.90;;;;;;5050702;28;21390;-67
2022/11/27 08:15:33;;;;;;;9.05;5.45;;;6.20;99.90;;;;;;5053787;28;20099;-67
2022/11/27 08:17:59;;;;;;;16.23;6.60;;;6.30;99.90;;;;;;5070565;28;20044;-67
2022/11/27 08:20:25;;;;;;;13.98;5.65;;;6.30;99.90;;;;;;5038011;28;20056;-67
2022/11/27 08:22:51;;;;;;;12.75;5.93;;;6.30;99.90;;;;;;5027332;28;20043;-67
2022/11/27 08:25:17;;;;;;;10.68;5.93;;;6.30;99.90;;;;;;5036794;28;20050;-67
2022/11/27 08:27:43;;;;;;;12.40;6.32;;;6.30;99.90;;;;;;5046526;28;20045;-67
2022/11/27 08:30:09;;;;;;;15.60;7.18;;;6.20;99.90;;;;;;5051083;28;20044;-67
2022/11/27 08:32:40;;;;;;;8.63;5.43;;;6.30;99.90;;;;;;5015078;28;20033;-67
2022/11/27 08:35:06;;;;;;;10.30;5.88;;;6.40;99.90;;;;;;5063956;28;20059;-67
2022/11/27 08:37:32;;;;;;;11.23;6.30;;;6.30;99.90;;;;;;5060048;28;20044;-68
2022/11/27 08:39:57;;;;;;;16.05;6.75;;;6.30;99.90;;;;;;5050317;28;20056;-67
2022/11/27 08:42:23;;;;;;;16.08;6.70;;;6.30;99.90;;;;;;5026227;28;20087;-67
2022/11/27 08:44:49;;;;;;;12.45;6.65;;;6.40;99.90;;;;;;5048665;28;20086;-68
2022/11/27 08:47:15;;;;;;;13.10;6.45;;;6.40;99.90;;;;;;5042880;28;20036;-68
2022/11/27 08:49:42;;;;;;;11.00;6.10;;;6.40;99.90;;;;;;5050283;28;20090;-67
2022/11/27 08:52:09;;;;;;;16.85;8.50;;;6.40;99.90;;;;;;5021569;28;20045;-67
2022/11/27 08:54:34;;;;;;;15.32;6.90;;;6.40;99.90;;;;;;5025848;28;20055;-65
2022/11/27 08:57:00;;;;;;;12.77;6.70;;;6.50;99.90;;;;;;5043814;28;20036;-65
2022/11/27 08:59:26;;;;;;;16.20;6.90;;;6.50;99.90;;;;;;5021986;28;20071;-65
2022/11/27 09:01:52;;;;;;;13.65;6.68;;;6.50;99.90;;;;;;5043838;28;20057;-65
2022/11/27 09:04:18;;;;;;;12.75;7.13;;;6.50;99.90;;;;;;5044385;28;20040;-65
2022/11/27 09:06:44;;;;;;;17.73;6.40;;;6.60;99.90;;;;;;5030224;28;20060;-65
2022/11/27 09:09:10;;;;;;;12.38;6.03;;;6.60;99.90;;;;;;5065204;28;20056;-65
2022/11/27 09:11:36;;;;;;;11.70;6.28;;;6.50;99.90;;;;;;5057434;28;20539;-66
2022/11/27 09:14:04;;;;;;;11.52;6.50;;;6.60;99.90;;;;;;5040295;28;20056;-65
2022/11/27 09:16:30;;;;;;;10.93;6.63;;;6.50;99.90;;;;;;5058374;28;20067;-65
2022/11/27 09:18:56;;;;;;;17.58;6.70;;;6.60;99.90;;;;;;5040619;28;20042;-65
2022/11/27 09:21:26;;;;;;;12.70;5.90;;;6.60;99.90;;;;;;5057214;28;20152;-65
2022/11/27 09:23:55;;;;;;;10.48;6.63;;;6.60;99.90;;;;;;5036773;28;20586;-65
2022/11/27 09:26:22;;;;;;;12.27;6.13;;;6.70;99.90;;;;;;5055756;28;20133;-65
2022/11/27 09:28:48;;;;;;;11.77;5.88;;;6.60;99.90;;;;;;5067224;28;20405;-65
2022/11/27 09:31:15;;;;;;;12.88;6.57;;;6.70;99.90;;;;;;5037887;28;20338;-64
2022/11/27 09:33:41;;;;;;;15.93;6.97;;;6.70;99.90;;;;;;5042696;28;20566;-65
2022/11/27 09:36:09;;;;;;;11.60;6.00;;;6.60;99.90;;;;;;5077694;28;20080;-65
2022/11/27 09:38:35;;;;;;;12.25;5.85;;;6.60;99.90;;;;;;5043848;28;20111;-65
2022/11/27 09:41:27;;;;;;;13.52;6.63;;;6.60;99.90;;;;;;5061010;28;20051;-65
2022/11/27 09:43:59;;;;;;;9.98;5.93;;;6.80;99.90;;;;;;4967477;28;20454;-65
2022/11/27 09:46:38;;;;;;;10.00;6.07;;;6.70;99.90;;;;;;4968934;28;20086;-66
2022/11/27 09:49:08;;;;;;;13.33;6.10;;;6.70;99.90;;;;;;4943267;28;20109;-64
2022/11/27 09:51:53;;;;;;;17.52;7.10;;;6.70;99.90;;;;;;4965291;28;20073;-65
2022/11/27 09:54:43;;;;;;;15.43;6.35;;;6.60;99.90;;;;;;4979794;28;20069;-64
2022/11/27 09:57:14;;;;;;;14.45;7.05;;;6.60;99.90;;;;;;4965849;28;20603;-68
2022/11/27 09:59:47;;;;;;;13.18;6.40;;;6.60;99.90;;;;;;4951544;28;20106;-67
2022/11/27 10:02:33;;;;;;;13.63;7.72;;;6.50;99.90;;;;;;4968488;28;20239;-68
2022/11/27 10:05:03;;;;;;;14.75;7.80;;;6.60;99.90;;;;;;4946183;28;20047;-67
2022/11/27 10:07:49;;;;;;;13.95;6.82;;;6.50;99.90;;;;;;4957067;28;20051;-67
2022/11/27 10:10:37;;;;;;;13.82;6.95;;;6.50;99.90;;;;;;4982224;28;20153;-67
2022/11/27 10:13:17;;;;;;;14.75;7.40;;;6.50;99.90;;;;;;4963124;28;20052;-67
2022/11/27 10:16:07;;;;;;;13.25;7.22;;;6.50;99.90;;;;;;4970663;28;20066;-68
2022/11/27 10:18:45;;;;;;;14.77;7.03;;;6.40;99.90;;;;;;4966860;28;20109;-67
2022/11/27 10:21:18;;;;;;;15.30;7.50;;;6.40;99.90;;;;;;5013615;28;20112;-68
2022/11/27 10:24:10;;;;;;;11.02;6.85;;;6.50;99.90;;;;;;5042914;28;20053;-67
2022/11/27 10:26:48;;;;;;;14.20;7.25;;;6.40;99.90;;;;;;5055635;28;20081;-67
2022/11/27 10:29:22;;;;;;;13.23;7.65;;;6.40;99.90;;;;;;5043272;28;20046;-67
2022/11/27 10:31:52;;;;;;;16.27;8.40;;;6.40;99.90;;;;;;5045518;28;20049;-67
2022/11/27 10:34:38;;;;;;;15.18;8.88;;;6.40;99.90;;;;;;5079426;28;20064;-68
2022/11/27 10:37:12;;;;;;;16.15;9.15;;;6.50;99.90;;;;;;5050357;28;20108;-67
2022/11/27 10:39:49;;;;;;;15.93;9.55;;;6.40;99.90;;;;;;5053465;28;20041;-67
2022/11/27 10:42:27;;;;;;;21.77;8.80;;;6.40;99.90;;;;;;5055096;28;20062;-68
2022/11/27 10:45:04;;;;;;;20.08;14.73;;;6.40;99.90;;;;;;5070794;28;20048;-67
2022/11/27 10:47:30;;;;;;;17.35;9.30;;;6.40;99.90;;;;;;5059887;28;20048;-67
2022/11/27 10:49:56;;;;;;;14.95;9.00;;;6.40;99.90;;;;;;5070308;28;20041;-67
2022/11/27 10:52:22;;;;;;;14.50;8.35;;;6.40;99.90;;;;;;5061292;28;20163;-67
2022/11/27 10:55:00;;;;;;;15.63;9.52;;;6.40;99.90;;;;;;5054538;28;20728;-67
2022/11/27 10:57:52;;;;;;;14.73;8.98;;;6.40;99.90;;;;;;5066799;28;20768;-67
2022/11/27 11:00:23;;;;;;;13.13;8.48;;;6.50;99.90;;;;;;5038841;28;20118;-67
2022/11/27 11:02:59;;;;;;;17.50;9.57;;;6.50;99.90;;;;;;5058261;28;20171;-67
2022/11/27 11:05:26;;;;;;;15.15;8.40;;;6.40;99.90;;;;;;5047611;28;20661;-68
2022/11/27 11:08:16;;;;;;;17.77;9.38;;;6.50;99.90;;;;;;5058320;28;20033;-67
2022/11/27 11:11:00;;;;;;;12.73;8.18;;;6.40;99.90;;;;;;5069783;28;20049;-68
2022/11/27 11:13:41;;;;;;;15.65;9.10;;;6.50;99.90;;;;;;5059947;28;20048;-67
2022/11/27 11:16:10;;;;;;;16.58;9.30;;;6.50;99.90;;;;;;5032272;28;20465;-67
2022/11/27 11:18:45;;;;;;;22.88;10.55;;;6.50;99.90;;;;;;5052590;28;20053;-69
2022/11/27 11:21:30;;;;;;;21.17;12.48;;;6.50;99.90;;;;;;5045293;28;20052;-68
2022/11/27 11:24:03;;;;;;;17.13;10.27;;;6.50;99.90;;;;;;5023899;28;20056;-71
2022/11/27 11:26:48;;;;;;;15.38;9.35;;;6.50;99.90;;;;;;5052204;28;20117;-66
2022/11/27 11:29:40;;;;;;;18.25;12.60;;;6.40;99.90;;;;;;5048289;28;20048;-66
2022/11/27 11:32:11;;;;;;;27.35;12.65;;;6.50;99.90;;;;;;5037923;28;20337;-68
2022/11/27 11:34:46;;;;;;;24.40;13.63;;;6.40;99.90;;;;;;5036922;28;20759;-68
2022/11/27 11:37:20;;;;;;;19.27;11.88;;;6.50;99.90;;;;;;5063407;28;20055;-67
2022/11/27 11:40:04;;;;;;;16.45;9.18;;;6.40;99.90;;;;;;5052558;28;20098;-66
2022/11/27 11:42:32;;;;;;;14.95;9.52;;;6.50;99.90;;;;;;5053513;28;20092;-67
2022/11/27 11:45:15;;;;;;;15.93;9.02;;;6.40;99.90;;;;;;5050828;28;20552;-67
2022/11/27 11:47:49;;;;;;;18.40;8.57;;;6.50;99.90;;;;;;5059611;28;20040;-68
2022/11/27 11:50:31;;;;;;;15.82;8.73;;;6.40;99.90;;;;;;5050737;28;20144;-66
2022/11/27 11:53:32;;;;;;;16.83;8.88;;;6.50;99.90;;;;;;5049243;28;20067;-66
2022/11/27 11:56:20;;;;;;;17.67;9.35;;;6.60;99.90;;;;;;5060290;28;20053;-67
2022/11/27 11:58:48;;;;;;;14.63;8.93;;;6.50;99.90;;;;;;5035273;28;20048;-70
2022/11/27 12:01:16;;;;;;;18.50;8.68;;;6.50;99.90;;;;;;5032099;28;20077;-67
2022/11/27 12:04:05;;;;;;;12.65;8.25;;;6.50;99.90;;;;;;5055224;28;20045;-66
2022/11/27 12:06:42;;;;;;;15.27;8.70;;;6.50;99.90;;;;;;4988743;28;20041;-66
2022/11/27 12:09:15;;;;;;;16.25;10.07;;;6.60;99.90;;;;;;5004953;28;20062;-66
2022/11/27 12:11:47;;;;;;;16.50;9.57;;;6.60;99.90;;;;;;5038411;28;20041;-66
2022/11/27 12:14:28;;;;;;;13.05;8.60;;;6.60;99.90;;;;;;5029825;28;20099;-67
2022/11/27 12:17:19;;;;;;;16.27;9.20;;;6.60;99.90;;;;;;5033590;28;20506;-66
2022/11/27 12:19:58;;;;;;;14.50;8.07;;;6.70;99.90;;;;;;5001745;28;20049;-66
2022/11/27 12:22:36;;;;;;;18.77;9.25;;;6.70;99.90;;;;;;5022853;28;20108;-66
2022/11/27 12:25:24;;;;;;;15.05;8.98;;;6.70;99.90;;;;;;5008907;28;20045;-66
2022/11/27 12:28:13;;;;;;;20.27;9.93;;;6.80;99.90;;;;;;5022372;28;20113;-66
2022/11/27 12:31:16;;;;;;;20.75;11.00;;;6.70;99.90;;;;;;5032471;28;20057;-67
2022/11/27 12:33:42;;;;;;;14.25;9.50;;;6.70;99.90;;;;;;5053004;28;20545;-67
2022/11/27 12:36:40;;;;;;;18.70;10.38;;;6.70;99.90;;;;;;5005294;28;20096;-68
2022/11/27 12:39:27;;;;;;;17.88;9.48;;;6.80;99.90;;;;;;4931650;28;20063;-68
2022/11/27 12:42:11;;;;;;;14.43;9.93;;;6.80;99.90;;;;;;4958101;28;20054;-66
2022/11/27 12:44:46;;;;;;;16.30;10.18;;;6.80;99.90;;;;;;4949214;28;20110;-66
2022/11/27 12:47:41;;;;;;;18.63;10.02;;;6.80;99.90;;;;;;4946826;28;20077;-68
2022/11/27 12:50:15;;;;;;;21.67;9.48;;;6.80;99.90;;;;;;4951347;28;20066;-66
2022/11/27 12:52:48;;;;;;;17.70;10.10;;;6.80;99.90;;;;;;4961531;28;20166;-66
2022/11/27 12:55:25;;;;;;;13.52;9.60;;;6.80;99.90;;;;;;4951274;28;20061;-67
2022/11/27 12:57:59;;;;;;;16.13;8.98;;;6.80;99.90;;;;;;4960149;28;20050;-66
2022/11/27 13:00:29;;;;;;;20.42;10.98;;;6.80;99.90;;;;;;4936376;28;20575;-67
2022/11/27 13:03:00;;;;;;;;;;;6.80;99.90;;;;;;4969713;28;20043;-66
2022/11/27 13:05:31;;;;;;;12.15;7.40;;;6.80;99.90;;;;;;4952091;28;19929;-66
2022/11/27 13:08:08;;;;;;;16.48;10.45;;;6.90;99.90;;;;;;4954253;28;20062;-66